CDT,Max TemperatureF,Mean TemperatureF,Min TemperatureF,Max Dew PointF,MeanDew PointF,Min DewpointF,Max Humidity, Mean Humidity, Min Humidity, Max Sea Level PressureIn, Mean Sea Level PressureIn, Min Sea Level PressureIn, Max VisibilityMiles, Mean VisibilityMiles, Min VisibilityMiles, Max Wind SpeedMPH, Mean Wind SpeedMPH, Max Gust SpeedMPH,PrecipitationIn, CloudCover, Events, WindDirDegrees
2012-9-1,86,78,71,73,72,68,94,80,62,30.08,29.99,29.86,10,10,2,22,11,30,0.50,6,,183
2012-9-2,77,74,71,73,72,70,100,93,83,29.93,29.86,29.83,10,9,2,15,11,21,0.18,7,,233
2012-9-3,80,76,71,75,72,70,100,89,74,29.90,29.86,29.82,10,9,2,14,8,20,0.00,7,,279
2012-9-4,87,79,71,73,72,70,100,82,55,29.95,29.89,29.87,10,8,0,9,4,,0.00,3,,358
2012-9-5,91,80,68,73,71,68,100,81,49,29.92,29.87,29.80,10,9,3,16,5,24,0.00,2,,182
2012-9-6,91,78,64,73,68,64,100,79,46,30.05,29.95,29.89,10,9,3,33,4,51,0.19,2,,212
2012-9-7,91,78,64,73,68,64,100,75,49,29.96,29.89,29.70,10,10,5,14,6,20,0.19,1,,196
2012-9-8,73,66,57,70,57,50,100,71,44,30.02,29.93,29.80,10,9,1,16,11,22,0.83,4,,341
2012-9-9,80,68,55,55,52,50,94,62,36,30.13,30.04,29.99,10,10,9,15,5,21,0.00,0,,299
2012-9-10,77,66,55,57,54,50,94,67,39,30.21,30.15,30.11,10,10,9,10,5,,0.00,0,,51
2012-9-11,82,68,55,59,56,54,100,69,37,30.23,30.18,30.14,10,10,8,12,2,,0.00,0,,147
2012-9-12,80,71,62,63,58,50,83,66,34,30.28,30.21,30.18,10,10,10,10,6,20,0.00,3,,165
2012-9-13,78,71,64,63,60,57,94,68,50,30.28,30.23,30.19,10,10,7,10,3,16,0.00,5,,172
2012-9-14,77,68,60,66,63,59,100,82,65,30.26,30.24,30.20,10,9,5,13,4,16,0.00,1,,25
2012-9-15,68,64,59,64,60,57,100,86,73,30.27,30.21,30.13,10,9,5,9,6,,0.02,2,,58
2012-9-16,75,70,64,68,65,63,100,87,69,30.14,30.07,30.01,10,9,2,9,4,,0.33,5,,82
2012-9-17,69,68,66,68,67,66,100,97,88,30.01,29.90,29.78,10,5,1,8,3,,1.03,3,,197
2012-9-18,68,59,50,66,51,39,100,69,37,30.10,29.92,29.76,10,9,3,22,8,29,0.00,3,,335
2012-9-19,71,58,44,46,42,36,100,60,27,30.20,30.13,30.08,10,10,8,8,3,,0.00,1,,102
2012-9-20,80,66,53,54,48,41,68,54,34,30.10,30.04,29.98,10,10,10,15,7,20,0.00,1,,210
2012-9-21,78,68,57,61,56,54,88,67,44,30.06,29.95,29.85,10,10,4,17,8,28,0.00,2,,212
2012-9-22,78,66,53,57,47,36,94,54,24,30.20,30.05,29.89,10,10,10,17,9,22,0.00,0,,313
2012-9-23,66,54,42,41,38,34,87,55,32,30.30,30.25,30.20,10,10,10,13,4,20,0.00,0,,16
2012-9-24,71,56,41,46,41,37,100,60,31,30.29,30.20,30.06,10,10,9,9,4,,0.00,0,,148
2012-9-25,82,70,59,68,59,46,83,67,54,30.06,30.02,29.95,10,10,10,15,9,29,0.00,0,,198
2012-9-26,84,74,64,68,63,55,100,74,51,30.15,30.07,30.03,10,10,1,18,9,33,0.08,3,,198
2012-9-27,77,70,64,68,65,63,100,89,65,30.20,30.13,30.08,10,8,1,13,4,20,1.33,5,,221
2012-9-28,71,68,64,68,65,57,100,92,77,30.13,30.09,30.05,10,6,0,9,2,,0.07,7,,5
2012-9-29,73,64,55,57,54,50,100,72,46,30.10,30.05,29.99,10,9,2,12,5,17,0.00,1,,23
2012-9-30,71,62,53,59,56,54,100,82,53,29.98,29.90,29.81,10,8,2,7,2,,0.00,0,,41